sensor_id;sensor_type;location;lat;lon;timestamp;temperature;humidity
20416;DHT22;10367;52.202;5.996;2024-03-25T00:02:14;4.30;99.90
20416;DHT22;10367;52.202;5.996;2024-03-25T00:04:41;4.30;99.90
20416;DHT22;10367;52.202;5.996;2024-03-25T00:07:08;4.30;99.90
20416;DHT22;10367;52.202;5.996;2024-03-25T00:09:36;4.30;99.90
20416;DHT22;10367;52.202;5.996;2024-03-25T00:12:03;4.30;99.90
20416;DHT22;10367;52.202;5.996;2024-03-25T00:14:32;4.30;99.90
20416;DHT22;10367;52.202;5.996;2024-03-25T00:16:59;4.30;99.90
20416;DHT22;10367;52.202;5.996;2024-03-25T00:19:27;4.30;99.90
20416;DHT22;10367;52.202;5.996;2024-03-25T00:21:53;4.20;99.90
20416;DHT22;10367;52.202;5.996;2024-03-25T00:24:21;4.20;99.90
20416;DHT22;10367;52.202;5.996;2024-03-25T00:26:48;4.20;99.90
20416;DHT22;10367;52.202;5.996;2024-03-25T00:29:15;4.20;99.90
20416;DHT22;10367;52.202;5.996;2024-03-25T00:31:43;4.10;99.90
20416;DHT22;10367;52.202;5.996;2024-03-25T00:34:11;4.10;99.90
20416;DHT22;10367;52.202;5.996;2024-03-25T00:36:39;4.10;99.90
20416;DHT22;10367;52.202;5.996;2024-03-25T00:39:06;4.00;99.90
20416;DHT22;10367;52.202;5.996;2024-03-25T00:41:34;3.90;99.90
20416;DHT22;10367;52.202;5.996;2024-03-25T00:44:01;3.80;99.90
20416;DHT22;10367;52.202;5.996;2024-03-25T00:46:28;3.80;99.90
20416;DHT22;10367;52.202;5.996;2024-03-25T00:48:57;3.80;99.90
20416;DHT22;10367;52.202;5.996;2024-03-25T00:51:23;3.70;99.90
20416;DHT22;10367;52.202;5.996;2024-03-25T00:53:51;3.60;99.90
20416;DHT22;10367;52.202;5.996;2024-03-25T00:56:18;3.60;99.90
20416;DHT22;10367;52.202;5.996;2024-03-25T00:58:47;3.60;99.90
20416;DHT22;10367;52.202;5.996;2024-03-25T01:01:13;3.60;99.90
20416;DHT22;10367;52.202;5.996;2024-03-25T01:03:41;3.60;99.90
20416;DHT22;10367;52.202;5.996;2024-03-25T01:06:10;3.60;99.90
20416;DHT22;10367;52.202;5.996;2024-03-25T01:08:38;3.60;99.90
20416;DHT22;10367;52.202;5.996;2024-03-25T01:11:04;3.50;99.90
20416;DHT22;10367;52.202;5.996;2024-03-25T01:13:32;3.60;99.90
20416;DHT22;10367;52.202;5.996;2024-03-25T01:15:59;3.60;99.90
20416;DHT22;10367;52.202;5.996;2024-03-25T01:18:27;3.60;99.90
20416;DHT22;10367;52.202;5.996;2024-03-25T01:20:53;3.50;99.90
20416;DHT22;10367;52.202;5.996;2024-03-25T01:23:22;3.50;99.90
20416;DHT22;10367;52.202;5.996;2024-03-25T01:25:49;3.40;99.90
20416;DHT22;10367;52.202;5.996;2024-03-25T01:28:16;3.40;99.90
20416;DHT22;10367;52.202;5.996;2024-03-25T01:30:43;3.40;99.90
20416;DHT22;10367;52.202;5.996;2024-03-25T01:33:11;3.40;99.90
20416;DHT22;10367;52.202;5.996;2024-03-25T01:35:37;3.50;99.90
20416;DHT22;10367;52.202;5.996;2024-03-25T01:38:05;3.50;99.90
20416;DHT22;10367;52.202;5.996;2024-03-25T01:40:33;3.60;99.90
20416;DHT22;10367;52.202;5.996;2024-03-25T01:43:02;3.70;99.90
20416;DHT22;10367;52.202;5.996;2024-03-25T01:45:31;3.70;99.90
20416;DHT22;10367;52.202;5.996;2024-03-25T01:48:01;3.80;99.90
20416;DHT22;10367;52.202;5.996;2024-03-25T01:50:29;3.90;99.90
20416;DHT22;10367;52.202;5.996;2024-03-25T01:52:57;3.90;99.90
20416;DHT22;10367;52.202;5.996;2024-03-25T01:55:26;4.00;99.90
20416;DHT22;10367;52.202;5.996;2024-03-25T01:57:56;4.10;99.90
20416;DHT22;10367;52.202;5.996;2024-03-25T02:00:23;4.10;99.90
20416;DHT22;10367;52.202;5.996;2024-03-25T02:02:52;4.20;99.90
20416;DHT22;10367;52.202;5.996;2024-03-25T02:05:19;4.20;99.90
20416;DHT22;10367;52.202;5.996;2024-03-25T02:07:47;4.20;99.90
20416;DHT22;10367;52.202;5.996;2024-03-25T02:10:16;4.20;99.90
20416;DHT22;10367;52.202;5.996;2024-03-25T02:12:45;4.30;99.90
20416;DHT22;10367;52.202;5.996;2024-03-25T02:15:14;4.30;99.90
20416;DHT22;10367;52.202;5.996;2024-03-25T02:17:41;4.30;99.90
20416;DHT22;10367;52.202;5.996;2024-03-25T02:20:09;4.30;99.90
20416;DHT22;10367;52.202;5.996;2024-03-25T02:22:38;4.40;99.90
20416;DHT22;10367;52.202;5.996;2024-03-25T02:25:06;4.40;99.90
20416;DHT22;10367;52.202;5.996;2024-03-25T02:27:37;4.40;99.90
20416;DHT22;10367;52.202;5.996;2024-03-25T02:30:04;4.40;99.90
20416;DHT22;10367;52.202;5.996;2024-03-25T02:32:33;4.40;99.90
20416;DHT22;10367;52.202;5.996;2024-03-25T02:35:01;4.30;99.90
20416;DHT22;10367;52.202;5.996;2024-03-25T02:37:29;4.30;99.90
20416;DHT22;10367;52.202;5.996;2024-03-25T02:39:58;4.30;99.90
20416;DHT22;10367;52.202;5.996;2024-03-25T02:42:27;4.30;99.90
20416;DHT22;10367;52.202;5.996;2024-03-25T02:44:56;4.30;99.90
20416;DHT22;10367;52.202;5.996;2024-03-25T02:47:24;4.40;99.90
20416;DHT22;10367;52.202;5.996;2024-03-25T02:49:51;4.30;99.90
20416;DHT22;10367;52.202;5.996;2024-03-25T02:52:19;4.30;99.90
20416;DHT22;10367;52.202;5.996;2024-03-25T02:54:46;4.30;99.90
20416;DHT22;10367;52.202;5.996;2024-03-25T02:57:14;4.20;99.90
20416;DHT22;10367;52.202;5.996;2024-03-25T02:59:40;4.20;99.90
20416;DHT22;10367;52.202;5.996;2024-03-25T03:02:09;4.20;99.90
20416;DHT22;10367;52.202;5.996;2024-03-25T03:04:36;4.20;99.90
20416;DHT22;10367;52.202;5.996;2024-03-25T03:07:04;4.10;99.90
20416;DHT22;10367;52.202;5.996;2024-03-25T03:09:31;4.00;99.90
20416;DHT22;10367;52.202;5.996;2024-03-25T03:11:59;3.90;99.90
20416;DHT22;10367;52.202;5.996;2024-03-25T03:14:25;3.90;99.90
20416;DHT22;10367;52.202;5.996;2024-03-25T03:16:53;3.90;99.90
20416;DHT22;10367;52.202;5.996;2024-03-25T03:19:22;3.90;99.90
20416;DHT22;10367;52.202;5.996;2024-03-25T03:21:50;3.80;99.90
20416;DHT22;10367;52.202;5.996;2024-03-25T03:24:16;3.70;99.90
20416;DHT22;10367;52.202;5.996;2024-03-25T03:26:44;3.70;99.90
20416;DHT22;10367;52.202;5.996;2024-03-25T03:29:11;3.60;99.90
20416;DHT22;10367;52.202;5.996;2024-03-25T03:31:39;3.60;99.90
20416;DHT22;10367;52.202;5.996;2024-03-25T03:34:06;3.60;99.90
20416;DHT22;10367;52.202;5.996;2024-03-25T03:36:35;3.60;99.90
20416;DHT22;10367;52.202;5.996;2024-03-25T03:39:02;3.60;99.90
20416;DHT22;10367;52.202;5.996;2024-03-25T03:41:29;3.60;99.90
20416;DHT22;10367;52.202;5.996;2024-03-25T03:43:56;3.70;99.90
20416;DHT22;10367;52.202;5.996;2024-03-25T03:46:24;3.70;99.90
20416;DHT22;10367;52.202;5.996;2024-03-25T03:48:50;3.80;99.90
20416;DHT22;10367;52.202;5.996;2024-03-25T03:51:18;3.80;99.90
20416;DHT22;10367;52.202;5.996;2024-03-25T03:53:46;4.00;99.90
20416;DHT22;10367;52.202;5.996;2024-03-25T03:56:13;4.00;99.90
20416;DHT22;10367;52.202;5.996;2024-03-25T03:58:40;4.10;99.90
20416;DHT22;10367;52.202;5.996;2024-03-25T04:01:15;4.10;99.90
20416;DHT22;10367;52.202;5.996;2024-03-25T04:03:42;4.10;99.90
20416;DHT22;10367;52.202;5.996;2024-03-25T04:06:11;4.00;99.90
20416;DHT22;10367;52.202;5.996;2024-03-25T04:08:38;3.90;99.90
20416;DHT22;10367;52.202;5.996;2024-03-25T04:11:07;3.80;99.90
20416;DHT22;10367;52.202;5.996;2024-03-25T04:13:34;3.70;99.90
20416;DHT22;10367;52.202;5.996;2024-03-25T04:16:03;3.60;99.90
20416;DHT22;10367;52.202;5.996;2024-03-25T04:18:31;3.50;99.90
20416;DHT22;10367;52.202;5.996;2024-03-25T04:20:59;3.50;99.90
20416;DHT22;10367;52.202;5.996;2024-03-25T04:23:26;3.40;99.90
20416;DHT22;10367;52.202;5.996;2024-03-25T04:25:54;3.40;99.90
20416;DHT22;10367;52.202;5.996;2024-03-25T04:28:22;3.40;99.90
20416;DHT22;10367;52.202;5.996;2024-03-25T04:30:51;3.30;99.90
20416;DHT22;10367;52.202;5.996;2024-03-25T04:33:18;3.30;99.90
20416;DHT22;10367;52.202;5.996;2024-03-25T04:35:46;3.30;99.90
20416;DHT22;10367;52.202;5.996;2024-03-25T04:38:15;3.30;99.90
20416;DHT22;10367;52.202;5.996;2024-03-25T04:40:42;3.20;99.90
20416;DHT22;10367;52.202;5.996;2024-03-25T04:43:09;3.20;99.90
20416;DHT22;10367;52.202;5.996;2024-03-25T04:45:37;3.20;99.90
20416;DHT22;10367;52.202;5.996;2024-03-25T04:48:04;3.20;99.90
20416;DHT22;10367;52.202;5.996;2024-03-25T04:50:31;3.10;99.90
20416;DHT22;10367;52.202;5.996;2024-03-25T04:52:58;3.10;99.90
20416;DHT22;10367;52.202;5.996;2024-03-25T04:55:24;3.10;99.90
20416;DHT22;10367;52.202;5.996;2024-03-25T04:57:51;3.00;99.90
20416;DHT22;10367;52.202;5.996;2024-03-25T05:00:18;3.00;99.90
20416;DHT22;10367;52.202;5.996;2024-03-25T05:02:46;3.00;99.90
20416;DHT22;10367;52.202;5.996;2024-03-25T05:05:13;2.80;99.90
20416;DHT22;10367;52.202;5.996;2024-03-25T05:07:40;2.80;99.90
20416;DHT22;10367;52.202;5.996;2024-03-25T05:10:07;2.80;99.90
20416;DHT22;10367;52.202;5.996;2024-03-25T05:12:34;2.80;99.90
20416;DHT22;10367;52.202;5.996;2024-03-25T05:15:00;2.80;99.90
20416;DHT22;10367;52.202;5.996;2024-03-25T05:17:27;2.70;99.90
20416;DHT22;10367;52.202;5.996;2024-03-25T05:19:55;2.70;99.90
20416;DHT22;10367;52.202;5.996;2024-03-25T05:22:22;2.60;99.90
20416;DHT22;10367;52.202;5.996;2024-03-25T05:24:48;2.60;99.90
20416;DHT22;10367;52.202;5.996;2024-03-25T05:27:15;2.60;99.90
20416;DHT22;10367;52.202;5.996;2024-03-25T05:29:42;2.60;99.90
20416;DHT22;10367;52.202;5.996;2024-03-25T05:32:09;2.50;99.90
20416;DHT22;10367;52.202;5.996;2024-03-25T05:34:35;2.50;99.90
20416;DHT22;10367;52.202;5.996;2024-03-25T05:37:04;2.40;99.90
20416;DHT22;10367;52.202;5.996;2024-03-25T05:39:31;2.40;99.90
20416;DHT22;10367;52.202;5.996;2024-03-25T05:41:57;2.40;99.90
20416;DHT22;10367;52.202;5.996;2024-03-25T05:44:24;2.40;99.90
20416;DHT22;10367;52.202;5.996;2024-03-25T05:46:51;2.40;99.90
20416;DHT22;10367;52.202;5.996;2024-03-25T05:49:17;2.30;99.90
20416;DHT22;10367;52.202;5.996;2024-03-25T05:51:44;2.40;99.90
20416;DHT22;10367;52.202;5.996;2024-03-25T05:54:12;2.40;99.90
20416;DHT22;10367;52.202;5.996;2024-03-25T05:56:39;2.50;99.90
20416;DHT22;10367;52.202;5.996;2024-03-25T05:59:06;2.50;99.90
20416;DHT22;10367;52.202;5.996;2024-03-25T06:01:32;2.40;99.90
20416;DHT22;10367;52.202;5.996;2024-03-25T06:04:00;2.50;99.90
20416;DHT22;10367;52.202;5.996;2024-03-25T06:06:26;2.60;99.90
20416;DHT22;10367;52.202;5.996;2024-03-25T06:08:53;2.50;99.90
20416;DHT22;10367;52.202;5.996;2024-03-25T06:11:21;2.60;99.90
20416;DHT22;10367;52.202;5.996;2024-03-25T06:13:48;2.60;99.90
20416;DHT22;10367;52.202;5.996;2024-03-25T06:16:15;2.60;99.90
20416;DHT22;10367;52.202;5.996;2024-03-25T06:18:41;2.70;99.90
20416;DHT22;10367;52.202;5.996;2024-03-25T06:21:08;2.70;99.90
20416;DHT22;10367;52.202;5.996;2024-03-25T06:23:35;2.70;99.90
20416;DHT22;10367;52.202;5.996;2024-03-25T06:26:02;2.80;99.90
20416;DHT22;10367;52.202;5.996;2024-03-25T06:28:30;2.90;99.90
20416;DHT22;10367;52.202;5.996;2024-03-25T06:30:56;3.00;99.90
20416;DHT22;10367;52.202;5.996;2024-03-25T06:33:41;3.00;99.90
20416;DHT22;10367;52.202;5.996;2024-03-25T06:36:26;3.10;99.90
20416;DHT22;10367;52.202;5.996;2024-03-25T06:38:53;3.20;99.90
20416;DHT22;10367;52.202;5.996;2024-03-25T06:41:20;3.30;99.90
20416;DHT22;10367;52.202;5.996;2024-03-25T06:43:48;3.30;99.90
20416;DHT22;10367;52.202;5.996;2024-03-25T06:46:15;3.40;99.90
20416;DHT22;10367;52.202;5.996;2024-03-25T06:48:41;3.40;99.90
20416;DHT22;10367;52.202;5.996;2024-03-25T06:51:08;3.50;99.90
20416;DHT22;10367;52.202;5.996;2024-03-25T06:53:35;3.50;99.90
20416;DHT22;10367;52.202;5.996;2024-03-25T06:56:02;3.50;99.90
20416;DHT22;10367;52.202;5.996;2024-03-25T06:58:29;3.50;99.90
20416;DHT22;10367;52.202;5.996;2024-03-25T07:01:04;3.60;99.90
20416;DHT22;10367;52.202;5.996;2024-03-25T07:03:31;3.80;99.90
20416;DHT22;10367;52.202;5.996;2024-03-25T07:05:58;3.90;99.90
20416;DHT22;10367;52.202;5.996;2024-03-25T07:08:25;4.10;99.90
20416;DHT22;10367;52.202;5.996;2024-03-25T07:10:52;4.30;99.90
20416;DHT22;10367;52.202;5.996;2024-03-25T07:13:19;4.50;99.90
20416;DHT22;10367;52.202;5.996;2024-03-25T07:15:46;4.60;99.90
20416;DHT22;10367;52.202;5.996;2024-03-25T07:18:14;4.80;99.90
20416;DHT22;10367;52.202;5.996;2024-03-25T07:20:41;4.90;99.90
20416;DHT22;10367;52.202;5.996;2024-03-25T07:23:08;5.00;99.90
20416;DHT22;10367;52.202;5.996;2024-03-25T07:25:35;5.20;99.90
20416;DHT22;10367;52.202;5.996;2024-03-25T07:28:02;5.40;99.90
20416;DHT22;10367;52.202;5.996;2024-03-25T07:30:29;5.50;99.90
20416;DHT22;10367;52.202;5.996;2024-03-25T07:32:56;5.60;99.90
20416;DHT22;10367;52.202;5.996;2024-03-25T07:35:24;5.80;99.90
20416;DHT22;10367;52.202;5.996;2024-03-25T07:37:51;6.00;99.90
20416;DHT22;10367;52.202;5.996;2024-03-25T07:40:19;6.10;99.90
20416;DHT22;10367;52.202;5.996;2024-03-25T07:42:45;6.20;99.90
20416;DHT22;10367;52.202;5.996;2024-03-25T07:45:15;6.40;99.90
20416;DHT22;10367;52.202;5.996;2024-03-25T07:47:42;6.50;99.90
20416;DHT22;10367;52.202;5.996;2024-03-25T07:50:09;6.60;99.90
20416;DHT22;10367;52.202;5.996;2024-03-25T07:52:38;6.70;99.90
20416;DHT22;10367;52.202;5.996;2024-03-25T07:55:05;6.80;99.90
20416;DHT22;10367;52.202;5.996;2024-03-25T07:57:32;6.80;99.90
20416;DHT22;10367;52.202;5.996;2024-03-25T07:59:58;7.00;99.90
20416;DHT22;10367;52.202;5.996;2024-03-25T08:02:25;7.10;99.90
20416;DHT22;10367;52.202;5.996;2024-03-25T08:04:52;7.10;99.90
20416;DHT22;10367;52.202;5.996;2024-03-25T08:07:18;7.20;99.90
20416;DHT22;10367;52.202;5.996;2024-03-25T08:09:46;7.20;99.90
20416;DHT22;10367;52.202;5.996;2024-03-25T08:12:13;7.30;99.90
20416;DHT22;10367;52.202;5.996;2024-03-25T08:14:40;7.30;99.90
20416;DHT22;10367;52.202;5.996;2024-03-25T08:17:06;7.40;99.90
20416;DHT22;10367;52.202;5.996;2024-03-25T08:19:33;7.50;99.90
20416;DHT22;10367;52.202;5.996;2024-03-25T08:22:00;7.60;99.90
20416;DHT22;10367;52.202;5.996;2024-03-25T08:24:26;7.70;99.90
20416;DHT22;10367;52.202;5.996;2024-03-25T08:26:55;7.70;99.90
20416;DHT22;10367;52.202;5.996;2024-03-25T08:29:21;7.70;99.90
20416;DHT22;10367;52.202;5.996;2024-03-25T08:31:48;7.70;99.90
20416;DHT22;10367;52.202;5.996;2024-03-25T08:34:15;7.60;99.90
20416;DHT22;10367;52.202;5.996;2024-03-25T08:36:41;7.50;99.90
20416;DHT22;10367;52.202;5.996;2024-03-25T08:39:08;7.40;99.90
20416;DHT22;10367;52.202;5.996;2024-03-25T08:41:35;7.30;99.90
20416;DHT22;10367;52.202;5.996;2024-03-25T08:44:03;7.30;99.90
20416;DHT22;10367;52.202;5.996;2024-03-25T08:46:29;7.30;99.90
20416;DHT22;10367;52.202;5.996;2024-03-25T08:48:56;7.40;99.90
20416;DHT22;10367;52.202;5.996;2024-03-25T08:51:23;7.40;99.90
20416;DHT22;10367;52.202;5.996;2024-03-25T08:53:49;7.40;99.90
20416;DHT22;10367;52.202;5.996;2024-03-25T08:56:16;7.50;99.90
20416;DHT22;10367;52.202;5.996;2024-03-25T08:58:43;7.60;99.90
20416;DHT22;10367;52.202;5.996;2024-03-25T09:01:11;7.70;99.90
20416;DHT22;10367;52.202;5.996;2024-03-25T09:03:38;7.80;99.90
20416;DHT22;10367;52.202;5.996;2024-03-25T09:06:05;7.90;99.90
20416;DHT22;10367;52.202;5.996;2024-03-25T09:08:32;8.20;99.90
20416;DHT22;10367;52.202;5.996;2024-03-25T09:10:59;8.20;99.90
20416;DHT22;10367;52.202;5.996;2024-03-25T09:13:31;8.30;99.90
20416;DHT22;10367;52.202;5.996;2024-03-25T09:15:58;8.40;99.90
20416;DHT22;10367;52.202;5.996;2024-03-25T09:18:26;8.60;99.90
20416;DHT22;10367;52.202;5.996;2024-03-25T09:20:53;8.70;99.90
20416;DHT22;10367;52.202;5.996;2024-03-25T09:23:19;8.70;99.90
20416;DHT22;10367;52.202;5.996;2024-03-25T09:25:53;8.80;99.90
20416;DHT22;10367;52.202;5.996;2024-03-25T09:28:22;9.00;99.90
20416;DHT22;10367;52.202;5.996;2024-03-25T09:30:49;9.20;99.90
20416;DHT22;10367;52.202;5.996;2024-03-25T09:33:16;9.50;99.90
20416;DHT22;10367;52.202;5.996;2024-03-25T09:35:44;9.70;99.90
20416;DHT22;10367;52.202;5.996;2024-03-25T09:38:11;9.80;99.90
20416;DHT22;10367;52.202;5.996;2024-03-25T09:40:40;10.10;99.90
20416;DHT22;10367;52.202;5.996;2024-03-25T09:43:13;10.20;99.90
20416;DHT22;10367;52.202;5.996;2024-03-25T09:45:44;10.20;99.90
20416;DHT22;10367;52.202;5.996;2024-03-25T09:48:16;10.20;99.90
20416;DHT22;10367;52.202;5.996;2024-03-25T09:50:45;10.40;99.90
20416;DHT22;10367;52.202;5.996;2024-03-25T09:53:12;10.60;99.90
20416;DHT22;10367;52.202;5.996;2024-03-25T09:55:39;10.80;99.90
20416;DHT22;10367;52.202;5.996;2024-03-25T09:58:06;10.90;99.90
20416;DHT22;10367;52.202;5.996;2024-03-25T10:00:32;10.80;99.90
20416;DHT22;10367;52.202;5.996;2024-03-25T10:02:59;10.80;99.90
20416;DHT22;10367;52.202;5.996;2024-03-25T10:05:26;10.80;99.90
20416;DHT22;10367;52.202;5.996;2024-03-25T10:07:54;10.70;99.90
20416;DHT22;10367;52.202;5.996;2024-03-25T10:10:21;10.70;99.90
20416;DHT22;10367;52.202;5.996;2024-03-25T10:12:47;10.70;99.90
20416;DHT22;10367;52.202;5.996;2024-03-25T10:15:17;10.60;99.90
20416;DHT22;10367;52.202;5.996;2024-03-25T10:17:44;10.60;99.90
20416;DHT22;10367;52.202;5.996;2024-03-25T10:20:14;10.70;99.90
20416;DHT22;10367;52.202;5.996;2024-03-25T10:22:41;10.70;99.90
20416;DHT22;10367;52.202;5.996;2024-03-25T10:25:19;10.60;99.90
20416;DHT22;10367;52.202;5.996;2024-03-25T10:27:53;10.70;99.90
20416;DHT22;10367;52.202;5.996;2024-03-25T10:30:20;11.00;99.90
20416;DHT22;10367;52.202;5.996;2024-03-25T10:32:58;11.10;99.90
20416;DHT22;10367;52.202;5.996;2024-03-25T10:35:27;11.40;99.90
20416;DHT22;10367;52.202;5.996;2024-03-25T10:37:58;11.40;99.90
20416;DHT22;10367;52.202;5.996;2024-03-25T10:40:27;11.30;99.90
20416;DHT22;10367;52.202;5.996;2024-03-25T10:43:01;11.30;99.90
20416;DHT22;10367;52.202;5.996;2024-03-25T10:45:29;11.20;99.90
20416;DHT22;10367;52.202;5.996;2024-03-25T10:47:57;11.20;99.90
20416;DHT22;10367;52.202;5.996;2024-03-25T10:50:28;11.10;99.90
20416;DHT22;10367;52.202;5.996;2024-03-25T10:52:57;10.90;99.90
20416;DHT22;10367;52.202;5.996;2024-03-25T10:55:26;10.90;99.90
20416;DHT22;10367;52.202;5.996;2024-03-25T10:57:54;10.70;99.90
20416;DHT22;10367;52.202;5.996;2024-03-25T11:00:23;10.70;99.90
20416;DHT22;10367;52.202;5.996;2024-03-25T11:02:50;10.70;99.90
20416;DHT22;10367;52.202;5.996;2024-03-25T11:05:17;11.00;99.90
20416;DHT22;10367;52.202;5.996;2024-03-25T11:07:44;11.20;99.90
20416;DHT22;10367;52.202;5.996;2024-03-25T11:10:11;11.40;99.90
20416;DHT22;10367;52.202;5.996;2024-03-25T11:12:41;11.50;99.90
20416;DHT22;10367;52.202;5.996;2024-03-25T11:15:09;11.80;99.90
20416;DHT22;10367;52.202;5.996;2024-03-25T11:17:36;11.90;99.90
20416;DHT22;10367;52.202;5.996;2024-03-25T11:20:07;12.10;99.90
20416;DHT22;10367;52.202;5.996;2024-03-25T11:22:34;12.20;99.90
20416;DHT22;10367;52.202;5.996;2024-03-25T11:25:07;12.40;99.90
20416;DHT22;10367;52.202;5.996;2024-03-25T11:27:36;12.50;99.90
20416;DHT22;10367;52.202;5.996;2024-03-25T11:30:05;12.80;99.90
20416;DHT22;10367;52.202;5.996;2024-03-25T11:32:43;13.10;99.90
20416;DHT22;10367;52.202;5.996;2024-03-25T11:35:10;13.30;99.90
20416;DHT22;10367;52.202;5.996;2024-03-25T11:37:41;13.60;99.90
20416;DHT22;10367;52.202;5.996;2024-03-25T11:40:08;13.70;99.90
20416;DHT22;10367;52.202;5.996;2024-03-25T11:42:37;13.80;99.90
20416;DHT22;10367;52.202;5.996;2024-03-25T11:45:06;13.70;99.90
20416;DHT22;10367;52.202;5.996;2024-03-25T11:47:33;13.80;99.90
20416;DHT22;10367;52.202;5.996;2024-03-25T11:50:00;13.60;99.90
20416;DHT22;10367;52.202;5.996;2024-03-25T11:52:30;13.40;99.90
20416;DHT22;10367;52.202;5.996;2024-03-25T11:54:57;13.10;99.90
20416;DHT22;10367;52.202;5.996;2024-03-25T11:57:23;13.10;99.90
20416;DHT22;10367;52.202;5.996;2024-03-25T11:59:51;13.00;99.90
20416;DHT22;10367;52.202;5.996;2024-03-25T12:02:19;13.00;99.90
20416;DHT22;10367;52.202;5.996;2024-03-25T12:04:47;12.80;99.90
20416;DHT22;10367;52.202;5.996;2024-03-25T12:07:14;12.80;99.90
20416;DHT22;10367;52.202;5.996;2024-03-25T12:09:41;12.80;99.90
20416;DHT22;10367;52.202;5.996;2024-03-25T12:12:26;12.90;99.90
20416;DHT22;10367;52.202;5.996;2024-03-25T12:14:54;12.70;99.90
20416;DHT22;10367;52.202;5.996;2024-03-25T12:17:23;12.60;99.90
20416;DHT22;10367;52.202;5.996;2024-03-25T12:20:01;12.50;99.90
20416;DHT22;10367;52.202;5.996;2024-03-25T12:22:28;12.50;99.90
20416;DHT22;10367;52.202;5.996;2024-03-25T12:24:57;12.50;99.90
20416;DHT22;10367;52.202;5.996;2024-03-25T12:27:24;12.50;99.90
20416;DHT22;10367;52.202;5.996;2024-03-25T12:29:58;12.40;99.90
20416;DHT22;10367;52.202;5.996;2024-03-25T12:32:36;12.70;99.90
20416;DHT22;10367;52.202;5.996;2024-03-25T12:35:06;12.80;99.90
20416;DHT22;10367;52.202;5.996;2024-03-25T12:37:33;12.60;99.90
20416;DHT22;10367;52.202;5.996;2024-03-25T12:40:00;12.30;99.90
20416;DHT22;10367;52.202;5.996;2024-03-25T12:42:26;12.30;99.90
20416;DHT22;10367;52.202;5.996;2024-03-25T12:44:53;12.30;99.90
20416;DHT22;10367;52.202;5.996;2024-03-25T12:47:20;12.20;99.90
20416;DHT22;10367;52.202;5.996;2024-03-25T12:49:48;12.00;99.90
20416;DHT22;10367;52.202;5.996;2024-03-25T12:52:15;12.10;99.90
20416;DHT22;10367;52.202;5.996;2024-03-25T12:55:02;12.20;99.90
20416;DHT22;10367;52.202;5.996;2024-03-25T12:57:29;12.60;99.90
20416;DHT22;10367;52.202;5.996;2024-03-25T12:59:56;12.80;99.90
20416;DHT22;10367;52.202;5.996;2024-03-25T13:02:22;13.30;99.90
20416;DHT22;10367;52.202;5.996;2024-03-25T13:04:51;13.80;99.90
20416;DHT22;10367;52.202;5.996;2024-03-25T13:07:17;14.20;99.90
20416;DHT22;10367;52.202;5.996;2024-03-25T13:09:44;14.40;99.90
20416;DHT22;10367;52.202;5.996;2024-03-25T13:12:12;14.20;99.90
20416;DHT22;10367;52.202;5.996;2024-03-25T13:14:38;14.00;99.90
20416;DHT22;10367;52.202;5.996;2024-03-25T13:17:05;14.40;99.90
20416;DHT22;10367;52.202;5.996;2024-03-25T13:19:32;14.80;99.90
20416;DHT22;10367;52.202;5.996;2024-03-25T13:22:00;15.10;99.90
20416;DHT22;10367;52.202;5.996;2024-03-25T13:24:27;15.20;99.90
20416;DHT22;10367;52.202;5.996;2024-03-25T13:26:53;15.40;99.90
20416;DHT22;10367;52.202;5.996;2024-03-25T13:29:20;15.40;99.90
20416;DHT22;10367;52.202;5.996;2024-03-25T13:31:46;15.40;99.90
20416;DHT22;10367;52.202;5.996;2024-03-25T13:34:13;15.70;99.90
20416;DHT22;10367;52.202;5.996;2024-03-25T13:36:40;15.80;99.90
20416;DHT22;10367;52.202;5.996;2024-03-25T13:39:08;15.90;99.90
20416;DHT22;10367;52.202;5.996;2024-03-25T13:41:35;15.90;99.90
20416;DHT22;10367;52.202;5.996;2024-03-25T13:44:01;16.10;99.90
20416;DHT22;10367;52.202;5.996;2024-03-25T13:46:28;16.30;99.90
20416;DHT22;10367;52.202;5.996;2024-03-25T13:48:55;16.50;99.90
20416;DHT22;10367;52.202;5.996;2024-03-25T13:51:22;16.40;99.90
20416;DHT22;10367;52.202;5.996;2024-03-25T13:53:49;16.40;99.90
20416;DHT22;10367;52.202;5.996;2024-03-25T13:56:17;16.10;99.90
20416;DHT22;10367;52.202;5.996;2024-03-25T13:58:44;16.10;99.90
20416;DHT22;10367;52.202;5.996;2024-03-25T14:01:11;16.00;99.90
20416;DHT22;10367;52.202;5.996;2024-03-25T14:03:37;16.20;99.90
20416;DHT22;10367;52.202;5.996;2024-03-25T14:06:04;16.20;99.90
20416;DHT22;10367;52.202;5.996;2024-03-25T14:08:31;16.30;99.90
20416;DHT22;10367;52.202;5.996;2024-03-25T14:10:58;16.60;99.90
20416;DHT22;10367;52.202;5.996;2024-03-25T14:13:26;16.50;99.90
20416;DHT22;10367;52.202;5.996;2024-03-25T14:15:53;16.40;99.90
20416;DHT22;10367;52.202;5.996;2024-03-25T14:18:20;16.10;99.90
20416;DHT22;10367;52.202;5.996;2024-03-25T14:20:46;15.60;99.90
20416;DHT22;10367;52.202;5.996;2024-03-25T14:23:13;15.50;99.90
20416;DHT22;10367;52.202;5.996;2024-03-25T14:25:40;15.50;99.90
20416;DHT22;10367;52.202;5.996;2024-03-25T14:28:07;15.60;99.90
20416;DHT22;10367;52.202;5.996;2024-03-25T14:30:35;15.90;99.90
20416;DHT22;10367;52.202;5.996;2024-03-25T14:33:02;16.10;99.90
20416;DHT22;10367;52.202;5.996;2024-03-25T14:35:29;16.20;99.90
20416;DHT22;10367;52.202;5.996;2024-03-25T14:37:55;16.20;99.90
20416;DHT22;10367;52.202;5.996;2024-03-25T14:40:22;16.00;99.90
20416;DHT22;10367;52.202;5.996;2024-03-25T14:42:49;15.80;99.90
20416;DHT22;10367;52.202;5.996;2024-03-25T14:45:15;16.10;99.90
20416;DHT22;10367;52.202;5.996;2024-03-25T14:47:43;16.40;99.90
20416;DHT22;10367;52.202;5.996;2024-03-25T14:50:10;16.50;99.90
20416;DHT22;10367;52.202;5.996;2024-03-25T14:52:37;16.50;99.90
20416;DHT22;10367;52.202;5.996;2024-03-25T14:55:04;16.20;99.90
20416;DHT22;10367;52.202;5.996;2024-03-25T14:57:31;16.40;99.90
20416;DHT22;10367;52.202;5.996;2024-03-25T14:59:57;16.20;99.90
20416;DHT22;10367;52.202;5.996;2024-03-25T15:02:24;15.40;99.90
20416;DHT22;10367;52.202;5.996;2024-03-25T15:04:52;14.40;99.90
20416;DHT22;10367;52.202;5.996;2024-03-25T15:07:19;14.20;99.90
20416;DHT22;10367;52.202;5.996;2024-03-25T15:09:46;14.30;99.90
20416;DHT22;10367;52.202;5.996;2024-03-25T15:12:13;14.60;99.90
20416;DHT22;10367;52.202;5.996;2024-03-25T15:14:39;14.60;99.90
20416;DHT22;10367;52.202;5.996;2024-03-25T15:17:06;14.50;99.90
20416;DHT22;10367;52.202;5.996;2024-03-25T15:19:33;14.40;99.90
20416;DHT22;10367;52.202;5.996;2024-03-25T15:22:01;14.30;99.90
20416;DHT22;10367;52.202;5.996;2024-03-25T15:24:28;14.20;99.90
20416;DHT22;10367;52.202;5.996;2024-03-25T15:26:54;14.50;99.90
20416;DHT22;10367;52.202;5.996;2024-03-25T15:29:21;14.60;99.90
20416;DHT22;10367;52.202;5.996;2024-03-25T15:31:48;14.30;99.90
20416;DHT22;10367;52.202;5.996;2024-03-25T15:34:15;13.70;99.90
20416;DHT22;10367;52.202;5.996;2024-03-25T15:36:42;13.60;99.90
20416;DHT22;10367;52.202;5.996;2024-03-25T15:39:10;13.60;99.90
20416;DHT22;10367;52.202;5.996;2024-03-25T15:41:37;13.50;99.90
20416;DHT22;10367;52.202;5.996;2024-03-25T15:44:03;13.80;99.90